Time;durP1;ratioP1;P1;durP2;ratioP2;P2;SDS_P1;SDS_P2;PMS_P1;PMS_P2;Temp;Humidity;BMP_temperature;BMP_pressure;BME280_temperature;BME280_humidity;BME280_pressure;Samples;Min_cycle;Max_cycle;Signal;HPM_P1;HPM_P2
2022/06/29 00:01:54;;;;;;;;;;;18.60;99.90;;;;;;5129921;28;20014;-75
2022/06/29 00:04:19;;;;;;;;;;;18.50;99.90;;;;;;5116020;28;20017;-75
2022/06/29 00:06:45;;;;;;;;;;;18.50;99.90;;;;;;5129615;28;19958;-75
2022/06/29 00:09:10;;;;;;;;;;;18.50;99.90;;;;;;5128086;28;19919;-76
2022/06/29 00:11:36;;;;;;;;;;;18.50;99.90;;;;;;5122005;28;20519;-75
2022/06/29 00:14:01;;;;;;;;;;;18.40;99.90;;;;;;5120757;28;20464;-75
2022/06/29 00:16:27;;;;;;;;;;;18.50;99.90;;;;;;5117283;28;19920;-75
2022/06/29 00:18:52;;;;;;;;;;;18.40;99.90;;;;;;5127488;28;19923;-75
2022/06/29 00:21:18;;;;;;;;;;;18.40;99.90;;;;;;5129163;28;19927;-75
2022/06/29 00:23:45;;;;;;;;;;;18.40;99.90;;;;;;5127809;28;19919;-75
2022/06/29 00:26:10;;;;;;;;;;;18.40;99.90;;;;;;5121770;27;20292;-75
2022/06/29 00:28:36;;;;;;;;;;;18.40;99.90;;;;;;5122567;28;19998;-75
2022/06/29 00:31:01;;;;;;;;;;;18.40;99.90;;;;;;5129168;28;20016;-75
2022/06/29 00:33:27;;;;;;;;;;;18.40;99.90;;;;;;5128070;28;19972;-75
2022/06/29 00:35:52;;;;;;;;;;;18.40;99.90;;;;;;5116090;28;20313;-76
2022/06/29 00:38:18;;;;;;;;;;;18.40;99.90;;;;;;5128032;28;19965;-75
2022/06/29 00:40:43;;;;;;;;;;;18.30;99.90;;;;;;5122382;28;19965;-75
2022/06/29 00:43:09;;;;;;;;;;;18.30;99.90;;;;;;5122463;28;19923;-76
2022/06/29 00:45:35;;;;;;;;;;;18.30;99.90;;;;;;5122371;28;20353;-76
2022/06/29 00:48:01;;;;;;;;;;;18.30;99.90;;;;;;5121580;28;20292;-75
2022/06/29 00:50:29;;;;;;;;;;;18.30;99.90;;;;;;5108475;28;19924;-75
2022/06/29 00:53:00;;;;;;;;;;;18.30;99.90;;;;;;5109071;28;19941;-75
2022/06/29 00:55:27;;;;;;;;;;;18.30;99.90;;;;;;5109715;28;19919;-75
2022/06/29 00:57:53;;;;;;;;;;;18.20;99.90;;;;;;5122108;28;19958;-75
2022/06/29 01:00:18;;;;;;;;;;;18.20;99.90;;;;;;5117814;28;19958;-75
2022/06/29 01:02:44;;;;;;;;;;;18.20;99.90;;;;;;5118041;27;19961;-75
2022/06/29 01:05:09;;;;;;;;;;;18.20;99.90;;;;;;5123153;27;20356;-75
2022/06/29 01:07:35;;;;;;;;;;;18.20;99.90;;;;;;5113205;28;19919;-75
2022/06/29 01:10:02;;;;;;;;;;;18.20;99.90;;;;;;5121134;27;20648;-75
2022/06/29 01:12:28;;;;;;;;;;;18.20;99.90;;;;;;5131379;27;20296;-75
2022/06/29 01:14:53;;;;;;;;;;;18.20;99.90;;;;;;5122252;27;19994;-75
2022/06/29 01:17:20;;;;;;;;;;;18.20;99.90;;;;;;5132600;27;19944;-75
2022/06/29 01:19:45;;;;;;;;;;;18.10;99.90;;;;;;5122963;27;20330;-75
2022/06/29 01:22:12;;;;;;;;;;;18.10;99.90;;;;;;5126677;27;19919;-75
2022/06/29 01:24:38;;;;;;;;;;;18.10;99.90;;;;;;5112966;27;19930;-75
2022/06/29 01:27:04;;;;;;;;;;;18.10;99.90;;;;;;5112099;27;19928;-75
2022/06/29 01:29:29;;;;;;;;;;;18.10;99.90;;;;;;5113144;28;20411;-75
2022/06/29 01:31:55;;;;;;;;;;;18.10;99.90;;;;;;5113099;27;19927;-75
2022/06/29 01:34:22;;;;;;;;;;;18.00;99.90;;;;;;5113271;27;19955;-76
2022/06/29 01:36:48;;;;;;;;;;;18.00;99.90;;;;;;5112487;28;20693;-75
2022/06/29 01:39:14;;;;;;;;;;;18.00;99.90;;;;;;5112498;28;20022;-75
2022/06/29 01:41:39;;;;;;;;;;;18.00;99.90;;;;;;5113113;27;20014;-75
2022/06/29 01:44:05;;;;;;;;;;;18.00;99.90;;;;;;5112715;27;19919;-76
2022/06/29 01:46:30;;;;;;;;;;;17.90;99.90;;;;;;5124473;27;19933;-76
2022/06/29 01:48:56;;;;;;;;;;;17.90;99.90;;;;;;5095328;28;20937;-75
2022/06/29 01:51:21;;;;;;;;;;;17.90;99.90;;;;;;5112588;28;19919;-75
2022/06/29 01:53:47;;;;;;;;;;;17.90;99.90;;;;;;5113040;27;19928;-76
2022/06/29 01:56:12;;;;;;;;;;;17.90;99.90;;;;;;5113318;27;19926;-75
2022/06/29 01:58:38;;;;;;;;;;;17.90;99.90;;;;;;5113051;27;20274;-76
2022/06/29 02:01:03;;;;;;;;;;;17.80;99.90;;;;;;5111766;27;20522;-75
2022/06/29 02:03:29;;;;;;;;;;;17.80;99.90;;;;;;5113251;27;19981;-75
2022/06/29 02:05:54;;;;;;;;;;;17.80;99.90;;;;;;5113590;27;19926;-75
2022/06/29 02:08:20;;;;;;;;;;;17.70;99.90;;;;;;5112766;27;19970;-76
2022/06/29 02:10:45;;;;;;;;;;;17.70;99.90;;;;;;5112959;27;19926;-75
2022/06/29 02:13:11;;;;;;;;;;;17.70;99.90;;;;;;5112122;27;19972;-76
2022/06/29 02:15:36;;;;;;;;;;;17.70;99.90;;;;;;5113044;27;20038;-75
2022/06/29 02:18:02;;;;;;;;;;;17.70;99.90;;;;;;5112600;27;19923;-76
2022/06/29 02:20:28;;;;;;;;;;;17.70;99.90;;;;;;5113498;27;19919;-76
2022/06/29 02:22:54;;;;;;;;;;;17.60;99.90;;;;;;5120100;27;20385;-75
2022/06/29 02:25:20;;;;;;;;;;;17.60;99.90;;;;;;5099223;27;19920;-75
2022/06/29 02:27:45;;;;;;;;;;;17.60;99.90;;;;;;5112603;27;19919;-75
2022/06/29 02:30:12;;;;;;;;;;;17.60;99.90;;;;;;5113490;27;19927;-75
2022/06/29 02:35:21;;;;;;;;;;;17.60;99.90;;;;;;5116535;27;19972;-75
2022/06/29 02:37:47;;;;;;;;;;;17.50;99.90;;;;;;5122177;27;20408;-75
2022/06/29 02:40:12;;;;;;;;;;;17.50;99.90;;;;;;5113973;27;20340;-75
2022/06/29 02:42:38;;;;;;;;;;;17.50;99.90;;;;;;5111327;28;19926;-75
2022/06/29 02:45:04;;;;;;;;;;;17.60;99.90;;;;;;5111616;27;19970;-74
2022/06/29 02:47:29;;;;;;;;;;;17.60;99.90;;;;;;5110942;28;19920;-75
2022/06/29 02:49:55;;;;;;;;;;;17.60;99.90;;;;;;5110886;28;20407;-75
2022/06/29 02:52:20;;;;;;;;;;;17.60;99.90;;;;;;5111389;28;19919;-74
2022/06/29 02:54:46;;;;;;;;;;;17.60;99.90;;;;;;5111168;28;20137;-75
2022/06/29 02:57:11;;;;;;;;;;;17.60;99.90;;;;;;5111237;27;20337;-75
2022/06/29 02:59:37;;;;;;;;;;;17.60;99.90;;;;;;5116138;27;19924;-75
2022/06/29 03:02:03;;;;;;;;;;;17.60;99.90;;;;;;5111446;27;20028;-75
2022/06/29 03:04:28;;;;;;;;;;;17.60;99.90;;;;;;5128776;27;19972;-75
2022/06/29 03:06:54;;;;;;;;;;;17.60;99.90;;;;;;5118172;27;20560;-75
2022/06/29 03:09:19;;;;;;;;;;;17.70;99.90;;;;;;5111222;27;20546;-75
2022/06/29 03:11:45;;;;;;;;;;;17.70;99.90;;;;;;5109384;27;20427;-74
2022/06/29 03:14:10;;;;;;;;;;;17.70;99.90;;;;;;5116128;27;19926;-74
2022/06/29 03:16:37;;;;;;;;;;;17.70;99.90;;;;;;5127111;27;19923;-75
2022/06/29 03:19:02;;;;;;;;;;;17.70;99.90;;;;;;5128551;27;20007;-75
2022/06/29 03:21:28;;;;;;;;;;;17.60;99.90;;;;;;5119293;27;19947;-74
2022/06/29 03:23:53;;;;;;;;;;;17.60;99.90;;;;;;5130026;27;19919;-75
2022/06/29 03:26:19;;;;;;;;;;;17.60;99.90;;;;;;5130536;27;19979;-75
2022/06/29 03:28:45;;;;;;;;;;;17.60;99.90;;;;;;5130473;27;19923;-75
2022/06/29 03:31:10;;;;;;;;;;;17.60;99.90;;;;;;5129622;27;19927;-75
2022/06/29 03:33:36;;;;;;;;;;;17.60;99.90;;;;;;5130234;27;19919;-75
2022/06/29 03:36:01;;;;;;;;;;;17.60;99.90;;;;;;5123971;27;20377;-76
2022/06/29 03:38:27;;;;;;;;;;;17.60;99.90;;;;;;5130905;27;19927;-76
2022/06/29 03:40:52;;;;;;;;;;;17.60;99.90;;;;;;5124890;27;20019;-75
2022/06/29 03:43:18;;;;;;;;;;;17.60;99.90;;;;;;5130722;27;20391;-75
2022/06/29 03:45:43;;;;;;;;;;;17.70;99.90;;;;;;5123830;27;19919;-75
2022/06/29 03:48:09;;;;;;;;;;;17.60;99.90;;;;;;5108688;28;19919;-75
2022/06/29 03:50:34;;;;;;;;;;;17.70;99.90;;;;;;5110118;28;19919;-76
2022/06/29 03:53:00;;;;;;;;;;;17.70;99.90;;;;;;5119789;27;20005;-75
2022/06/29 03:55:25;;;;;;;;;;;17.60;99.90;;;;;;5109513;28;19924;-75
2022/06/29 03:57:51;;;;;;;;;;;17.60;99.90;;;;;;5109083;28;19924;-75
2022/06/29 04:00:17;;;;;;;;;;;17.70;99.90;;;;;;5108394;28;19931;-76
2022/06/29 04:02:42;;;;;;;;;;;17.70;99.90;;;;;;5114472;28;19927;-75
2022/06/29 04:05:08;;;;;;;;;;;17.60;99.90;;;;;;5119779;28;19926;-76
2022/06/29 04:07:35;;;;;;;;;;;17.60;99.90;;;;;;5122323;27;20412;-75
2022/06/29 04:10:00;;;;;;;;;;;17.70;99.90;;;;;;5123102;28;19919;-75
2022/06/29 04:12:30;;;;;;;;;;;17.70;99.90;;;;;;5117948;28;20002;-75
2022/06/29 04:14:56;;;;;;;;;;;17.70;99.90;;;;;;5116038;27;19970;-75
2022/06/29 04:17:21;;;;;;;;;;;17.70;99.90;;;;;;5111910;27;20019;-75
2022/06/29 04:19:47;;;;;;;;;;;17.70;99.90;;;;;;5109072;28;20014;-74
2022/06/29 04:22:12;;;;;;;;;;;17.70;99.90;;;;;;5109949;28;19927;-75
2022/06/29 04:24:38;;;;;;;;;;;17.70;99.90;;;;;;5121531;28;19919;-75
2022/06/29 04:27:03;;;;;;;;;;;17.70;99.90;;;;;;5111487;27;19926;-76
2022/06/29 04:29:29;;;;;;;;;;;17.80;99.90;;;;;;5110428;28;19960;-75
2022/06/29 04:31:54;;;;;;;;;;;17.80;99.90;;;;;;5109970;28;19920;-75
2022/06/29 04:34:20;;;;;;;;;;;17.70;99.90;;;;;;5123438;28;19927;-75
2022/06/29 04:36:46;;;;;;;;;;;17.80;99.90;;;;;;5109829;28;19920;-75
2022/06/29 04:39:11;;;;;;;;;;;17.80;99.90;;;;;;5113641;27;19927;-75
2022/06/29 04:41:37;;;;;;;;;;;17.80;99.90;;;;;;5114729;27;19963;-75
2022/06/29 04:44:02;;;;;;;;;;;17.80;99.90;;;;;;5114649;27;19981;-75
2022/06/29 04:46:28;;;;;;;;;;;17.80;99.90;;;;;;5119307;27;19924;-75
2022/06/29 04:48:56;;;;;;;;;;;17.90;99.90;;;;;;5113457;28;20340;-76
2022/06/29 04:51:22;;;;;;;;;;;17.90;99.90;;;;;;5124524;27;20289;-75
2022/06/29 04:53:48;;;;;;;;;;;18.00;99.90;;;;;;5115449;27;19924;-75
2022/06/29 04:56:14;;;;;;;;;;;18.00;99.90;;;;;;5114023;27;19920;-75
2022/06/29 04:58:39;;;;;;;;;;;18.10;99.90;;;;;;5114896;27;19923;-75
2022/06/29 05:01:05;;;;;;;;;;;18.10;99.90;;;;;;5113547;28;19927;-75
2022/06/29 05:03:31;;;;;;;;;;;18.10;99.90;;;;;;5113439;27;20300;-75
2022/06/29 05:05:56;;;;;;;;;;;18.20;99.90;;;;;;5113078;27;19923;-76
2022/06/29 05:08:22;;;;;;;;;;;18.20;99.90;;;;;;5115949;27;20007;-76
2022/06/29 05:10:47;;;;;;;;;;;18.30;99.90;;;;;;5133139;27;19919;-75
2022/06/29 05:13:13;;;;;;;;;;;18.30;99.90;;;;;;5129444;27;20133;-75
2022/06/29 05:15:38;;;;;;;;;;;18.40;99.90;;;;;;5112922;27;20002;-76
2022/06/29 05:18:04;;;;;;;;;;;18.50;99.90;;;;;;5114098;27;20566;-76
2022/06/29 05:20:30;;;;;;;;;;;18.60;99.90;;;;;;5132849;27;19923;-75
2022/06/29 05:22:55;;;;;;;;;;;18.70;99.90;;;;;;5119154;27;19926;-75
2022/06/29 05:25:21;;;;;;;;;;;18.80;99.90;;;;;;5131868;27;19970;-76
2022/06/29 05:27:47;;;;;;;;;;;18.80;99.90;;;;;;5131163;27;19928;-76
2022/06/29 05:30:13;;;;;;;;;;;18.80;99.90;;;;;;5132454;27;19919;-75
2022/06/29 05:32:38;;;;;;;;;;;18.90;99.90;;;;;;5131050;27;20011;-76
2022/06/29 05:35:04;;;;;;;;;;;18.90;99.90;;;;;;5132172;27;20006;-75
2022/06/29 05:37:30;;;;;;;;;;;18.90;99.90;;;;;;5131201;27;19927;-77
2022/06/29 05:39:56;;;;;;;;;;;18.90;99.90;;;;;;5132478;27;19926;-75
2022/06/29 05:42:21;;;;;;;;;;;18.90;99.90;;;;;;5130874;27;19952;-74
2022/06/29 05:44:47;;;;;;;;;;;18.90;99.90;;;;;;5130906;27;19974;-74
2022/06/29 05:47:14;;;;;;;;;;;19.00;99.90;;;;;;5121606;27;19927;-75
2022/06/29 05:49:40;;;;;;;;;;;19.00;99.90;;;;;;5121275;27;19958;-74
2022/06/29 05:52:05;;;;;;;;;;;19.00;99.90;;;;;;5118671;27;19943;-75
2022/06/29 05:54:31;;;;;;;;;;;19.00;99.90;;;;;;5130006;27;20018;-75
2022/06/29 05:56:57;;;;;;;;;;;19.00;99.90;;;;;;5131308;27;20291;-75
2022/06/29 05:59:22;;;;;;;;;;;19.00;99.90;;;;;;5131620;27;19926;-75
2022/06/29 06:01:48;;;;;;;;;;;19.00;99.90;;;;;;5129143;27;19982;-76
2022/06/29 06:04:13;;;;;;;;;;;19.10;99.90;;;;;;5102657;27;20384;-75
2022/06/29 06:06:39;;;;;;;;;;;19.10;99.90;;;;;;5128965;27;19942;-75
2022/06/29 06:09:04;;;;;;;;;;;19.20;99.90;;;;;;5112166;28;20280;-75
2022/06/29 06:11:30;;;;;;;;;;;19.30;99.90;;;;;;5114131;27;19930;-75
2022/06/29 06:13:55;;;;;;;;;;;19.30;99.90;;;;;;5131988;27;19944;-75
2022/06/29 06:16:21;;;;;;;;;;;19.40;99.90;;;;;;5115641;27;19920;-75
2022/06/29 06:18:46;;;;;;;;;;;19.50;99.90;;;;;;5120385;27;19924;-75
2022/06/29 06:21:13;;;;;;;;;;;19.60;99.90;;;;;;5117386;27;19934;-75
2022/06/29 06:23:38;;;;;;;;;;;19.60;99.90;;;;;;5131183;27;19919;-75
2022/06/29 06:26:04;;;;;;;;;;;19.70;99.90;;;;;;5129109;27;19920;-75
2022/06/29 06:28:29;;;;;;;;;;;19.70;99.90;;;;;;5122380;27;19933;-75
2022/06/29 06:30:55;;;;;;;;;;;19.60;99.90;;;;;;5123249;27;20403;-75
2022/06/29 06:33:22;;;;;;;;;;;19.70;99.90;;;;;;5119695;27;19919;-74
2022/06/29 06:35:48;;;;;;;;;;;19.70;99.90;;;;;;5129388;27;20022;-74
2022/06/29 06:38:14;;;;;;;;;;;19.80;99.90;;;;;;5122559;27;20002;-75
2022/06/29 06:43:23;;;;;;;;;;;20.00;99.90;;;;;;5120915;27;20373;-74
2022/06/29 06:45:49;;;;;;;;;;;20.00;99.90;;;;;;5125554;27;19923;-74
2022/06/29 06:48:14;;;;;;;;;;;20.10;99.90;;;;;;5122631;27;20411;-75
2022/06/29 06:50:40;;;;;;;;;;;20.20;99.90;;;;;;5126288;27;19952;-74
2022/06/29 06:53:06;;;;;;;;;;;20.30;99.90;;;;;;5122319;27;19919;-73
2022/06/29 06:55:31;;;;;;;;;;;20.30;99.90;;;;;;5130095;27;20342;-74
2022/06/29 06:57:57;;;;;;;;;;;20.40;99.90;;;;;;5131271;27;20661;-74
2022/06/29 07:00:22;;;;;;;;;;;20.40;99.90;;;;;;5115863;27;19992;-75
2022/06/29 07:02:48;;;;;;;;;;;20.50;99.90;;;;;;5130431;27;19919;-75
2022/06/29 07:05:13;;;;;;;;;;;20.60;99.90;;;;;;5111584;27;19926;-75
2022/06/29 07:07:39;;;;;;;;;;;20.60;99.90;;;;;;5110588;28;19919;-75
2022/06/29 07:10:05;;;;;;;;;;;20.70;99.90;;;;;;5110804;28;19919;-75
2022/06/29 07:12:31;;;;;;;;;;;20.70;99.90;;;;;;5110590;28;19941;-73
2022/06/29 07:14:56;;;;;;;;;;;20.80;99.90;;;;;;5114404;27;19919;-74
2022/06/29 07:17:22;;;;;;;;;;;20.90;99.90;;;;;;5131118;27;19919;-74
2022/06/29 07:19:47;;;;;;;;;;;21.00;99.90;;;;;;5130368;27;20014;-75
2022/06/29 07:22:13;;;;;;;;;;;21.00;99.90;;;;;;5120436;27;19919;-74
2022/06/29 07:24:38;;;;;;;;;;;21.00;99.90;;;;;;5110565;28;19971;-74
2022/06/29 07:27:04;;;;;;;;;;;21.10;99.90;;;;;;5120978;27;19924;-75
2022/06/29 07:29:29;;;;;;;;;;;21.10;99.90;;;;;;5113818;27;20026;-75
2022/06/29 07:31:55;;;;;;;;;;;21.10;99.10;;;;;;5099064;28;19923;-75
2022/06/29 07:34:20;;;;;;;;;;;21.20;99.90;;;;;;5110757;28;19926;-74
2022/06/29 07:36:46;;;;;;;;;;;21.20;99.90;;;;;;5110858;27;19920;-75
2022/06/29 07:39:11;;;;;;;;;;;21.30;99.60;;;;;;5111057;27;19920;-74
2022/06/29 07:41:37;;;;;;;;;;;21.30;99.50;;;;;;5110996;28;19930;-75
2022/06/29 07:44:06;;;;;;;;;;;21.40;99.90;;;;;;5109658;27;19988;-75
2022/06/29 07:46:31;;;;;;;;;;;21.40;99.40;;;;;;5110371;28;19919;-75
2022/06/29 07:48:57;;;;;;;;;;;21.40;99.80;;;;;;5123853;27;20391;-76
2022/06/29 07:51:22;;;;;;;;;;;21.50;99.90;;;;;;5116919;27;19919;-74
2022/06/29 07:53:48;;;;;;;;;;;21.60;99.70;;;;;;5109793;28;19926;-75
2022/06/29 07:56:13;;;;;;;;;;;21.70;99.60;;;;;;5110515;28;20033;-75
2022/06/29 07:58:39;;;;;;;;;;;21.70;99.90;;;;;;5129869;27;19919;-75
2022/06/29 08:01:04;;;;;;;;;;;21.80;99.80;;;;;;5116057;28;20281;-76
2022/06/29 08:03:31;;;;;;;;;;;21.90;99.50;;;;;;5126483;28;19927;-75
2022/06/29 08:05:57;;;;;;;;;;;22.00;99.70;;;;;;5130326;27;19919;-75
2022/06/29 08:08:23;;;;;;;;;;;22.10;99.90;;;;;;5127193;27;20016;-75
2022/06/29 08:10:49;;;;;;;;;;;22.10;99.80;;;;;;5119269;27;20010;-74
2022/06/29 08:13:14;;;;;;;;;;;22.30;99.50;;;;;;5131150;27;19966;-74
2022/06/29 08:15:41;;;;;;;;;;;22.30;99.90;;;;;;5134648;27;19972;-75
2022/06/29 08:18:07;;;;;;;;;;;22.40;99.60;;;;;;5125095;27;19920;-75
2022/06/29 08:20:32;;;;;;;;;;;22.50;99.50;;;;;;5116296;27;19942;-75
2022/06/29 08:22:58;;;;;;;;;;;22.60;99.40;;;;;;5134162;27;20291;-75
2022/06/29 08:25:24;;;;;;;;;;;22.60;99.10;;;;;;5120438;27;19920;-75
2022/06/29 08:27:51;;;;;;;;;;;22.70;98.70;;;;;;5125138;27;19924;-75
2022/06/29 08:30:17;;;;;;;;;;;22.70;98.80;;;;;;5129373;27;20381;-75
2022/06/29 08:32:44;;;;;;;;;;;22.90;99.50;;;;;;5134142;27;19919;-75
2022/06/29 08:35:13;;;;;;;;;;;23.00;99.10;;;;;;5120757;27;19924;-75
2022/06/29 08:37:39;;;;;;;;;;;23.00;99.10;;;;;;5124531;27;19924;-75
2022/06/29 08:40:06;;;;;;;;;;;23.10;99.30;;;;;;5113852;27;20427;-74
2022/06/29 08:42:33;;;;;;;;;;;23.20;98.90;;;;;;5113868;27;19964;-75
2022/06/29 08:44:58;;;;;;;;;;;23.20;99.20;;;;;;5113485;27;20003;-75
2022/06/29 08:47:24;;;;;;;;;;;23.30;99.90;;;;;;5112548;28;20403;-75
2022/06/29 08:49:49;;;;;;;;;;;23.40;99.40;;;;;;5113736;27;20346;-75
2022/06/29 08:52:15;;;;;;;;;;;23.50;98.70;;;;;;5113194;28;19998;-75
2022/06/29 08:54:42;;;;;;;;;;;23.60;97.40;;;;;;5129735;27;20348;-75
2022/06/29 08:57:08;;;;;;;;;;;23.60;97.80;;;;;;5133925;27;19941;-75
2022/06/29 08:59:36;;;;;;;;;;;23.70;96.40;;;;;;5117094;27;19919;-74
2022/06/29 09:02:02;;;;;;;;;;;23.80;95.60;;;;;;5123595;27;19991;-75
2022/06/29 09:04:28;;;;;;;;;;;23.80;96.60;;;;;;5131839;27;19920;-75
2022/06/29 09:06:54;;;;;;;;;;;23.90;97.00;;;;;;5123006;27;19975;-75
2022/06/29 09:09:20;;;;;;;4.13;1.25;;;24.00;96.00;;;;;;5126477;27;20003;-74
2022/06/29 09:11:46;;;;;;;3.80;1.17;;;24.10;96.50;;;;;;5111294;27;20500;-74
2022/06/29 09:14:33;;;;;;;1.80;1.02;;;24.30;94.80;;;;;;5125774;27;20527;-74
2022/06/29 09:17:00;;;;;;;2.88;1.00;;;24.40;95.60;;;;;;5125391;27;20047;-74
2022/06/29 09:19:42;;;;;;;4.70;1.40;;;24.50;95.70;;;;;;5132988;27;20031;-76
2022/06/29 09:22:08;;;;;;;4.82;1.10;;;24.60;95.30;;;;;;5118902;27;20062;-75
2022/06/29 09:24:34;;;;;;;4.63;1.35;;;24.70;95.00;;;;;;5131943;27;20040;-74
2022/06/29 09:27:00;;;;;;;;;;;24.90;94.40;;;;;;5128842;27;20046;-75
2022/06/29 09:29:27;;;;;;;;;;;24.90;92.40;;;;;;5120910;27;19919;-75
2022/06/29 09:32:04;;;;;;;;;;;25.10;91.30;;;;;;5129593;27;19926;-75
2022/06/29 09:34:37;;;;;;;1.73;1.00;;;25.20;91.80;;;;;;5123860;27;19923;-75
2022/06/29 09:37:05;;;;;;;2.83;1.35;;;25.40;90.60;;;;;;5111715;27;20122;-75
2022/06/29 09:39:31;;;;;;;;;;;25.60;90.40;;;;;;5112970;27;20043;-75
2022/06/29 09:41:57;;;;;;;;;;;25.80;89.10;;;;;;5111103;27;19924;-75
2022/06/29 09:44:23;;;;;;;;;;;25.80;91.00;;;;;;5112543;27;19920;-76
2022/06/29 09:46:49;;;;;;;2.47;1.10;;;25.80;90.80;;;;;;5112023;27;20312;-75
2022/06/29 09:49:15;;;;;;;;;;;25.90;90.50;;;;;;5112998;27;20044;-75
2022/06/29 09:51:41;;;;;;;;;;;26.20;89.00;;;;;;5112108;28;19923;-74
2022/06/29 09:54:07;;;;;;;;;;;26.50;88.40;;;;;;5105742;27;20172;-75
2022/06/29 09:56:33;;;;;;;;;;;26.80;83.50;;;;;;5130858;27;19919;-75
2022/06/29 09:59:00;;;;;;;;;;;27.00;85.40;;;;;;5130636;27;20407;-75
2022/06/29 10:04:14;;;;;;;;;;;27.20;81.30;;;;;;5117842;27;19927;-75
2022/06/29 10:06:40;;;;;;;;;;;27.40;80.40;;;;;;5131905;27;20002;-75
2022/06/29 10:09:06;;;;;;;3.33;0.90;;;27.60;81.40;;;;;;5130318;27;20013;-75
2022/06/29 10:14:43;;;;;;;2.20;1.00;;;27.70;78.20;;;;;;5129019;27;20430;-75
2022/06/29 10:17:26;;;;;;;2.57;1.20;;;27.90;78.80;;;;;;5115177;27;20401;-75
2022/06/29 10:20:24;;;;;;;3.13;1.20;;;28.00;77.10;;;;;;5119771;27;20493;-75
2022/06/29 10:22:50;;;;;;;3.63;1.10;;;28.30;74.90;;;;;;5128942;27;20418;-75
2022/06/29 10:25:15;;;;;;;2.47;0.90;;;28.50;77.80;;;;;;5127792;27;20426;-75
2022/06/29 10:28:16;;;;;;;2.50;0.90;;;28.70;75.30;;;;;;5129337;27;20455;-75
2022/06/29 10:30:43;;;;;;;2.90;1.10;;;28.90;74.80;;;;;;5114340;27;20481;-75
2022/06/29 10:33:33;;;;;;;3.00;1.07;;;29.10;73.10;;;;;;5128507;27;20406;-76
2022/06/29 10:36:08;;;;;;;3.28;0.80;;;29.30;72.10;;;;;;5117590;27;20411;-76
2022/06/29 10:39:08;;;;;;;2.47;0.87;;;29.40;70.00;;;;;;5126618;27;20493;-76
2022/06/29 10:44:58;;;;;;;3.03;0.87;;;29.50;68.20;;;;;;5125690;27;20434;-75
2022/06/29 10:47:24;;;;;;;2.47;0.90;;;29.60;70.90;;;;;;5128891;27;20485;-75
2022/06/29 10:50:16;;;;;;;2.55;0.90;;;29.80;68.50;;;;;;5126772;27;20410;-76
2022/06/29 10:52:44;;;;;;;2.77;0.83;;;29.90;63.50;;;;;;5115024;27;20404;-76
2022/06/29 10:55:11;;;;;;;3.85;0.70;;;30.00;64.30;;;;;;5128997;27;20753;-76
2022/06/29 10:57:38;;;;;;;3.93;0.90;;;30.10;66.50;;;;;;5114611;27;20416;-75
2022/06/29 11:00:09;;;;;;;3.03;0.70;;;30.30;66.20;;;;;;5109250;28;21116;-75
2022/06/29 11:02:36;;;;;;;3.42;0.73;;;30.40;62.20;;;;;;5108042;28;20412;-75
2022/06/29 11:05:03;;;;;;;2.10;0.70;;;30.70;63.10;;;;;;5090109;28;20417;-76
2022/06/29 11:12:58;;;;;;;1.90;0.90;;;31.40;59.30;;;;;;5122291;27;20444;-75
2022/06/29 11:15:44;;;;;;;2.22;0.80;;;31.50;59.80;;;;;;5109983;27;20485;-76
2022/06/29 11:18:30;;;;;;;2.20;0.75;;;31.50;58.10;;;;;;5129454;27;20411;-75
2022/06/29 11:21:03;;;;;;;2.27;0.90;;;31.40;57.90;;;;;;5128749;27;20448;-75
2022/06/29 11:23:31;;;;;;;3.35;0.90;;;31.20;57.20;;;;;;5128189;27;20395;-75
2022/06/29 11:25:57;;;;;;;3.00;0.90;;;31.00;58.80;;;;;;5122427;27;20460;-76
2022/06/29 11:28:32;;;;;;;2.13;1.10;;;30.90;58.40;;;;;;5108816;28;20422;-75
2022/06/29 11:31:01;;;;;;;3.38;1.00;;;30.80;58.00;;;;;;5127392;27;20959;-75
2022/06/29 11:33:40;;;;;;;2.95;0.90;;;30.40;57.80;;;;;;5116319;27;20400;-75
2022/06/29 11:36:08;;;;;;;3.25;1.10;;;30.10;58.30;;;;;;5108799;27;20408;-75
2022/06/29 11:38:41;;;;;;;3.13;0.95;;;29.80;59.50;;;;;;5109695;27;20404;-75
2022/06/29 11:41:18;;;;;;;2.63;1.10;;;29.70;58.70;;;;;;5110211;27;20478;-75
2022/06/29 11:43:45;;;;;;;4.13;1.10;;;29.60;58.80;;;;;;5128739;27;20496;-75
2022/06/29 11:46:21;;;;;;;2.13;1.20;;;29.50;61.50;;;;;;5110586;27;20428;-75
2022/06/29 11:51:47;;;;;;;2.50;1.10;;;30.00;62.20;;;;;;5116177;27;20770;-75
2022/06/29 11:54:12;;;;;;;1.85;1.20;;;30.20;61.90;;;;;;5111103;27;20404;-75
2022/06/29 11:56:38;;;;;;;2.60;1.23;;;30.10;59.20;;;;;;5106900;28;20804;-75
2022/06/29 11:59:05;;;;;;;3.63;1.07;;;30.00;58.30;;;;;;5107513;28;20396;-75
2022/06/29 12:01:31;;;;;;;2.00;1.10;;;29.90;60.70;;;;;;5108650;28;20489;-75
2022/06/29 12:03:59;;;;;;;2.80;1.30;;;29.80;61.00;;;;;;5108380;28;20401;-75
2022/06/29 12:06:43;;;;;;;3.40;1.00;;;29.90;62.10;;;;;;5108073;28;20424;-75
2022/06/29 12:09:08;;;;;;;2.25;1.15;;;30.20;60.80;;;;;;5108593;28;20397;-76
2022/06/29 12:11:34;;;;;;;3.70;1.13;;;30.50;59.70;;;;;;5108165;28;20920;-76
2022/06/29 12:14:00;;;;;;;3.00;0.90;;;30.60;58.70;;;;;;5108253;28;20956;-75
2022/06/29 12:16:25;;;;;;;2.30;0.97;;;30.50;59.30;;;;;;5108273;28;20400;-76
2022/06/29 12:18:51;;;;;;;2.75;1.00;;;30.40;57.50;;;;;;5108137;28;20937;-75
2022/06/29 12:21:17;;;;;;;2.00;0.90;;;30.20;57.50;;;;;;5108253;28;20767;-75
2022/06/29 12:23:42;;;;;;;2.05;0.93;;;30.00;57.80;;;;;;5107788;28;20917;-75
2022/06/29 12:26:09;;;;;;;2.10;0.77;;;29.90;56.50;;;;;;5108207;28;20424;-75
2022/06/29 12:28:34;;;;;;;1.30;0.88;;;29.80;58.00;;;;;;5117717;28;20474;-75
2022/06/29 12:31:00;;;;;;;3.40;0.90;;;29.80;57.00;;;;;;5127443;28;20470;-76
2022/06/29 12:33:26;;;;;;;3.42;1.00;;;29.90;56.80;;;;;;5118383;27;20396;-75
2022/06/29 12:35:52;;;;;;;1.60;0.80;;;30.10;57.10;;;;;;5124228;28;22176;-75
2022/06/29 12:38:17;;;;;;;3.00;1.00;;;30.30;58.10;;;;;;5128367;27;21357;-76
2022/06/29 12:40:43;;;;;;;2.05;0.82;;;30.50;58.00;;;;;;5110915;27;20471;-75
2022/06/29 12:43:09;;;;;;;1.77;1.10;;;30.70;57.50;;;;;;5117625;28;20764;-75
2022/06/29 12:45:35;;;;;;;2.80;1.20;;;30.70;56.80;;;;;;5113868;28;20430;-75
2022/06/29 12:48:01;;;;;;;2.47;1.40;;;30.70;57.80;;;;;;5127079;27;20779;-75
2022/06/29 12:50:27;;;;;;;3.40;1.13;;;30.80;58.50;;;;;;5126614;27;20418;-75
2022/06/29 12:52:52;;;;;;;1.63;1.17;;;30.90;58.20;;;;;;5117251;28;20408;-75
2022/06/29 12:55:20;;;;;;;2.40;1.42;;;31.00;56.90;;;;;;5122611;28;20408;-75
2022/06/29 12:57:46;;;;;;;2.65;1.20;;;31.10;57.40;;;;;;5127594;27;20406;-76
2022/06/29 13:00:13;;;;;;;2.63;1.27;;;31.20;56.70;;;;;;5117053;27;20963;-75
2022/06/29 13:02:39;;;;;;;1.83;1.15;;;31.50;57.90;;;;;;5130471;27;20399;-75
2022/06/29 13:05:07;;;;;;;4.00;1.30;;;31.80;57.20;;;;;;5131634;27;20422;-76
2022/06/29 13:07:34;;;;;;;6.30;1.35;;;32.20;55.70;;;;;;5121651;27;20976;-76
2022/06/29 13:10:00;;;;;;;3.63;1.30;;;32.50;56.40;;;;;;5111366;27;20392;-76
2022/06/29 13:12:26;;;;;;;3.67;1.63;;;32.80;55.30;;;;;;5111578;27;20491;-76
2022/06/29 13:14:53;;;;;;;2.15;1.50;;;33.10;54.30;;;;;;5112022;27;20454;-76
2022/06/29 13:17:19;;;;;;;3.05;1.40;;;33.30;55.50;;;;;;5110544;27;20404;-76
2022/06/29 13:19:45;;;;;;;3.20;1.67;;;33.50;55.20;;;;;;5111069;28;20396;-76
2022/06/29 13:22:15;;;;;;;2.10;1.83;;;33.60;55.10;;;;;;5111372;27;20895;-75
2022/06/29 13:24:41;;;;;;;4.50;1.98;;;33.70;55.60;;;;;;5111256;27;20477;-76
2022/06/29 13:27:07;;;;;;;2.92;2.38;;;33.90;56.90;;;;;;5111622;27;20043;-76
2022/06/29 13:29:32;;;;;;;3.28;2.60;;;33.90;55.00;;;;;;5112039;28;20135;-75
2022/06/29 13:31:59;;;;;;;4.30;2.63;;;33.60;54.70;;;;;;5121560;27;20448;-76
2022/06/29 13:34:27;;;;;;;4.32;2.95;;;33.50;56.40;;;;;;5112334;27;20940;-75
2022/06/29 13:36:53;;;;;;;4.45;2.90;;;33.40;56.60;;;;;;5110992;28;20473;-75
2022/06/29 13:39:19;;;;;;;4.40;2.90;;;33.30;55.10;;;;;;5110876;28;20435;-75
2022/06/29 13:41:45;;;;;;;3.50;2.60;;;33.20;56.80;;;;;;5110490;27;20436;-75
2022/06/29 13:44:11;;;;;;;4.00;3.05;;;33.30;56.00;;;;;;5109764;27;20910;-76
2022/06/29 13:46:36;;;;;;;4.70;3.20;;;33.40;56.30;;;;;;5109531;28;20428;-76
2022/06/29 13:49:03;;;;;;;6.90;3.00;;;33.40;55.80;;;;;;5110498;28;20774;-75
2022/06/29 13:51:29;;;;;;;5.28;3.20;;;33.40;55.60;;;;;;5121747;27;20427;-76
2022/06/29 13:53:55;;;;;;;4.72;3.10;;;33.30;55.00;;;;;;5130749;27;20387;-76
2022/06/29 13:56:20;;;;;;;3.23;2.93;;;33.20;54.70;;;;;;5119863;27;20399;-76
2022/06/29 13:58:47;;;;;;;4.23;3.20;;;33.30;55.70;;;;;;5110206;28;20464;-77
2022/06/29 14:01:14;;;;;;;4.50;3.30;;;33.20;55.70;;;;;;5110362;27;20411;-75
2022/06/29 14:03:40;;;;;;;4.90;2.90;;;33.00;54.40;;;;;;5123797;27;20404;-75
2022/06/29 14:06:05;;;;;;;3.90;3.20;;;32.60;55.50;;;;;;5110284;28;20431;-75
2022/06/29 14:08:31;;;;;;;4.83;3.30;;;32.10;54.20;;;;;;5110571;27;20435;-75